createdAt,value
2022-12-07T00:01:47.618Z,4.70
2022-12-07T00:04:18.343Z,4.80
2022-12-07T00:06:51.009Z,4.80
2022-12-07T00:09:18.845Z,4.90
2022-12-07T00:11:50.685Z,5.00
2022-12-07T00:14:19.369Z,5.00
2022-12-07T00:16:46.459Z,5.00
2022-12-07T00:19:14.973Z,5.00
2022-12-07T00:21:43.076Z,4.90
2022-12-07T00:24:12.198Z,4.90
2022-12-07T00:26:41.690Z,4.90
2022-12-07T00:29:21.421Z,4.90
2022-12-07T00:31:48.569Z,4.80
2022-12-07T00:34:19.951Z,4.80
2022-12-07T00:36:47.085Z,4.80
2022-12-07T00:39:14.328Z,4.80
2022-12-07T00:41:41.321Z,4.80
2022-12-07T00:44:08.162Z,4.60
2022-12-07T00:46:35.121Z,4.60
2022-12-07T00:49:02.006Z,4.50
2022-12-07T00:51:28.887Z,4.40
2022-12-07T00:53:55.914Z,4.30
2022-12-07T00:56:28.577Z,4.20
2022-12-07T00:59:01.855Z,4.20
2022-12-07T01:01:33.059Z,4.10
2022-12-07T01:04:02.050Z,4.10
2022-12-07T01:06:30.666Z,4.10
2022-12-07T01:08:58.178Z,4.10
2022-12-07T01:11:29.483Z,4.10
2022-12-07T01:13:59.933Z,4.10
2022-12-07T01:16:30.516Z,4.20
2022-12-07T01:18:59.531Z,4.20
2022-12-07T01:21:36.860Z,4.30
2022-12-07T01:24:07.446Z,4.20
2022-12-07T01:26:34.319Z,4.10
2022-12-07T01:29:01.774Z,4.10
2022-12-07T01:31:29.911Z,4.10
2022-12-07T01:34:00.172Z,4.10
2022-12-07T01:36:37.546Z,4.00
2022-12-07T01:39:07.899Z,4.00
2022-12-07T01:41:41.129Z,3.90
2022-12-07T01:44:33.639Z,3.90
2022-12-07T01:47:04.517Z,3.90
2022-12-07T01:49:43.952Z,3.90
2022-12-07T01:52:28.951Z,3.80
2022-12-07T01:55:04.816Z,3.70
2022-12-07T01:57:35.684Z,3.70
2022-12-07T02:00:03.198Z,3.70
2022-12-07T02:02:51.699Z,3.90
2022-12-07T02:05:20.327Z,3.90
2022-12-07T02:07:49.849Z,4.10
2022-12-07T02:10:23.129Z,4.20
2022-12-07T02:13:13.375Z,4.40
2022-12-07T02:16:26.911Z,4.50
2022-12-07T02:19:12.382Z,4.50
2022-12-07T02:22:09.883Z,4.60
2022-12-07T02:24:55.348Z,4.60
2022-12-07T02:28:02.378Z,4.60
2022-12-07T02:30:38.320Z,4.70
2022-12-07T02:33:14.735Z,4.60
2022-12-07T02:36:09.329Z,4.70
2022-12-07T02:39:00.435Z,4.60
2022-12-07T02:41:47.795Z,4.60
2022-12-07T02:44:24.638Z,4.60
2022-12-07T02:47:04.199Z,4.50
2022-12-07T02:49:39.984Z,4.50
2022-12-07T02:52:06.922Z,4.40
2022-12-07T02:54:33.682Z,4.30
2022-12-07T02:57:12.410Z,4.30
2022-12-07T02:59:48.807Z,4.20
2022-12-07T03:03:00.220Z,4.20
2022-12-07T03:05:45.136Z,4.20
2022-12-07T03:08:27.837Z,4.30
2022-12-07T03:11:22.074Z,4.60
2022-12-07T03:14:10.987Z,4.80
2022-12-07T03:16:50.770Z,4.80
2022-12-07T03:19:22.499Z,4.80
2022-12-07T03:22:04.713Z,4.70
2022-12-07T03:24:39.950Z,4.70
2022-12-07T03:27:20.773Z,4.60
2022-12-07T03:30:00.189Z,4.50
2022-12-07T03:32:55.388Z,4.40
2022-12-07T03:35:32.399Z,4.30
2022-12-07T03:38:29.442Z,4.20
2022-12-07T03:41:29.683Z,4.10
2022-12-07T03:43:58.183Z,4.00
2022-12-07T03:46:34.006Z,4.00
2022-12-07T03:49:44.571Z,4.00
2022-12-07T03:53:00.247Z,4.00
2022-12-07T03:55:39.296Z,4.00
2022-12-07T03:58:18.720Z,3.90
2022-12-07T04:00:48.065Z,4.00
2022-12-07T04:03:15.325Z,3.90
2022-12-07T04:05:43.327Z,3.80
2022-12-07T04:08:10.517Z,3.90
2022-12-07T04:10:37.607Z,3.90
2022-12-07T04:13:04.571Z,3.80
2022-12-07T04:15:31.630Z,3.90
2022-12-07T04:17:58.387Z,3.90
2022-12-07T04:20:25.270Z,3.90
2022-12-07T04:22:52.094Z,3.80
2022-12-07T04:25:18.950Z,3.70
2022-12-07T04:27:45.801Z,3.70
2022-12-07T04:30:12.930Z,3.70
2022-12-07T04:32:39.780Z,3.60
2022-12-07T04:35:07.690Z,3.70
2022-12-07T04:37:34.543Z,3.70
2022-12-07T04:40:01.676Z,3.80
2022-12-07T04:42:28.961Z,4.00
2022-12-07T04:44:55.766Z,4.10
2022-12-07T04:47:22.582Z,4.30
2022-12-07T04:49:49.362Z,4.20
2022-12-07T04:52:16.149Z,4.30
2022-12-07T04:54:42.921Z,4.30
2022-12-07T04:57:09.766Z,4.20
2022-12-07T04:59:39.806Z,4.20
2022-12-07T05:02:09.233Z,4.10
2022-12-07T05:04:36.045Z,4.10
2022-12-07T05:07:02.958Z,4.00
2022-12-07T05:09:29.688Z,3.80
2022-12-07T05:11:56.491Z,3.80
2022-12-07T05:14:23.292Z,3.90
2022-12-07T05:16:52.290Z,3.80
2022-12-07T05:19:20.451Z,3.80
2022-12-07T05:21:47.729Z,3.70
2022-12-07T05:24:17.128Z,3.70
2022-12-07T05:26:45.901Z,3.70
2022-12-07T05:29:15.576Z,3.60
2022-12-07T05:31:43.543Z,3.60
2022-12-07T05:34:11.412Z,3.50
2022-12-07T05:36:38.415Z,3.50
2022-12-07T05:39:05.459Z,3.40
2022-12-07T05:41:50.966Z,3.40
2022-12-07T05:44:17.750Z,3.40
2022-12-07T05:46:44.734Z,3.40
2022-12-07T05:49:11.693Z,3.40
2022-12-07T05:51:38.654Z,3.40
2022-12-07T05:54:05.567Z,3.50
2022-12-07T05:56:32.357Z,3.50
2022-12-07T05:59:31.269Z,3.50
2022-12-07T06:02:05.858Z,3.50
2022-12-07T06:04:41.599Z,3.50
2022-12-07T06:07:09.665Z,3.40
2022-12-07T06:09:37.649Z,3.40
2022-12-07T06:12:24.768Z,3.30
2022-12-07T06:14:52.238Z,3.20
2022-12-07T06:17:19.194Z,3.20
2022-12-07T06:19:46.049Z,3.20
2022-12-07T06:22:13.399Z,3.30
2022-12-07T06:24:41.101Z,3.40
2022-12-07T06:27:08.255Z,3.40
2022-12-07T06:29:35.354Z,3.40
2022-12-07T06:32:02.219Z,3.30
2022-12-07T06:34:29.259Z,3.30
2022-12-07T06:36:56.713Z,3.20
2022-12-07T06:39:27.010Z,3.20
2022-12-07T06:41:54.815Z,3.10
2022-12-07T06:44:23.142Z,3.10
2022-12-07T06:46:51.811Z,3.10
2022-12-07T06:49:18.742Z,3.20
2022-12-07T06:51:45.776Z,3.20
2022-12-07T06:54:15.794Z,3.30
2022-12-07T06:56:42.859Z,3.30
2022-12-07T06:59:09.773Z,3.20
2022-12-07T07:01:36.914Z,3.20
2022-12-07T07:04:04.447Z,3.20
2022-12-07T07:06:31.418Z,3.20
2022-12-07T07:08:58.300Z,3.30
2022-12-07T07:11:25.170Z,3.30
2022-12-07T07:13:51.977Z,3.30
2022-12-07T07:16:18.771Z,3.40
2022-12-07T07:18:45.605Z,3.30
2022-12-07T07:21:12.553Z,3.30
2022-12-07T07:23:39.390Z,3.30
2022-12-07T07:26:06.234Z,3.30
2022-12-07T07:28:33.093Z,3.30
2022-12-07T07:30:59.979Z,3.20
2022-12-07T07:33:26.777Z,3.10
2022-12-07T07:35:53.609Z,3.10
2022-12-07T07:38:20.559Z,3.00
2022-12-07T07:40:47.417Z,3.00
2022-12-07T07:43:14.255Z,3.00
2022-12-07T07:45:41.631Z,2.90
2022-12-07T07:48:08.633Z,3.00
2022-12-07T07:50:35.539Z,3.00
2022-12-07T07:53:02.377Z,2.90
2022-12-07T07:55:29.787Z,2.80
2022-12-07T07:57:56.646Z,2.90
2022-12-07T08:00:23.996Z,2.90
2022-12-07T08:02:50.839Z,2.90
2022-12-07T08:05:18.048Z,2.90
2022-12-07T08:07:45.585Z,2.90
2022-12-07T08:10:14.717Z,2.90
2022-12-07T08:13:02.620Z,2.90
2022-12-07T08:15:31.840Z,2.90
2022-12-07T08:17:59.560Z,2.90
2022-12-07T08:20:27.404Z,2.80
2022-12-07T08:22:55.342Z,2.90
2022-12-07T08:25:23.303Z,3.00
2022-12-07T08:27:52.223Z,3.20
2022-12-07T08:30:19.974Z,3.40
2022-12-07T08:32:48.417Z,3.70
2022-12-07T08:35:15.993Z,4.00
2022-12-07T08:37:43.440Z,4.00
2022-12-07T08:40:16.007Z,4.10
2022-12-07T08:42:45.577Z,4.20
2022-12-07T08:45:15.069Z,4.40
2022-12-07T08:47:58.239Z,4.50
2022-12-07T08:50:26.082Z,4.50
2022-12-07T08:52:57.883Z,4.60
2022-12-07T08:55:24.930Z,4.60
2022-12-07T08:57:52.255Z,4.70
2022-12-07T09:00:19.472Z,4.70
2022-12-07T09:02:47.463Z,4.80
2022-12-07T09:05:17.778Z,4.80
2022-12-07T09:07:51.320Z,4.90
2022-12-07T09:10:19.155Z,4.90
2022-12-07T09:12:45.924Z,5.00
2022-12-07T09:15:12.676Z,5.00
2022-12-07T09:17:39.466Z,5.00
2022-12-07T09:20:07.430Z,5.10
2022-12-07T09:22:34.444Z,5.10
2022-12-07T09:25:02.107Z,5.20
2022-12-07T09:27:29.185Z,5.20
2022-12-07T09:29:56.327Z,5.20
2022-12-07T09:32:23.811Z,5.20
2022-12-07T09:34:50.818Z,5.10
2022-12-07T09:37:17.645Z,5.30
2022-12-07T09:39:49.750Z,5.50
2022-12-07T09:42:44.634Z,5.80
2022-12-07T09:45:22.493Z,5.90
2022-12-07T09:47:50.066Z,5.90
2022-12-07T09:50:23.923Z,5.90
2022-12-07T09:52:52.858Z,5.90
2022-12-07T09:55:29.866Z,5.90
2022-12-07T09:57:58.941Z,6.00
2022-12-07T10:00:26.399Z,6.10
2022-12-07T10:03:03.770Z,6.10
2022-12-07T10:05:38.174Z,6.10
2022-12-07T10:08:05.593Z,6.20
2022-12-07T10:10:38.509Z,6.20
2022-12-07T10:13:16.110Z,6.20
2022-12-07T10:15:54.948Z,6.20
2022-12-07T10:18:37.646Z,6.10
2022-12-07T10:21:26.872Z,6.10
2022-12-07T10:24:06.126Z,6.20
2022-12-07T10:26:49.221Z,6.20
2022-12-07T10:29:25.390Z,6.50
2022-12-07T10:32:24.750Z,6.50
2022-12-07T10:34:53.047Z,6.60
2022-12-07T10:37:21.428Z,6.70
2022-12-07T10:39:49.632Z,6.90
2022-12-07T10:42:31.791Z,6.90
2022-12-07T10:45:19.276Z,6.90
2022-12-07T10:47:57.003Z,6.90
2022-12-07T10:50:53.379Z,6.90
2022-12-07T10:53:47.316Z,6.90
2022-12-07T10:56:53.406Z,6.90
2022-12-07T10:59:32.715Z,7.00
2022-12-07T11:02:22.351Z,7.00
2022-12-07T11:05:36.630Z,6.90
2022-12-07T11:09:00.415Z,6.70
2022-12-07T11:12:00.734Z,6.60
2022-12-07T11:14:41.873Z,6.60
2022-12-07T11:17:25.412Z,6.60
2022-12-07T11:20:19.735Z,6.60
2022-12-07T11:23:33.803Z,6.60
2022-12-07T11:26:25.414Z,6.50
2022-12-07T11:29:31.606Z,6.50
2022-12-07T11:32:42.979Z,6.60
2022-12-07T11:35:31.472Z,6.80
2022-12-07T11:38:15.578Z,6.80
2022-12-07T11:40:49.853Z,6.60
2022-12-07T11:43:30.737Z,6.60
2022-12-07T11:46:18.527Z,6.50
2022-12-07T11:49:20.255Z,6.50
2022-12-07T11:51:53.153Z,6.50
2022-12-07T11:54:31.187Z,6.50
2022-12-07T11:57:08.910Z,6.60
2022-12-07T11:59:49.858Z,6.70
2022-12-07T12:02:27.621Z,6.60
2022-12-07T12:05:08.158Z,6.60
2022-12-07T12:10:55.537Z,6.70
2022-12-07T12:17:32.754Z,6.70
2022-12-07T12:20:21.723Z,6.80
2022-12-07T12:23:18.067Z,6.70
2022-12-07T12:25:59.445Z,6.80
2022-12-07T12:28:55.051Z,6.80
2022-12-07T12:31:21.779Z,6.90
2022-12-07T12:33:59.106Z,7.00
2022-12-07T12:36:43.732Z,7.00
2022-12-07T12:39:21.749Z,7.00
2022-12-07T12:41:54.067Z,7.00
2022-12-07T12:44:23.698Z,7.00
2022-12-07T12:47:00.928Z,7.10
2022-12-07T12:49:27.623Z,7.20
2022-12-07T12:52:09.830Z,7.20
2022-12-07T12:54:38.173Z,7.30
2022-12-07T12:57:25.300Z,7.50
2022-12-07T12:59:55.836Z,7.50
2022-12-07T13:02:48.702Z,7.60
2022-12-07T13:05:15.532Z,7.60
2022-12-07T13:07:48.507Z,7.60
2022-12-07T13:10:30.458Z,7.40
2022-12-07T13:13:16.482Z,7.30
2022-12-07T13:15:52.019Z,7.30
2022-12-07T13:18:31.453Z,7.30
2022-12-07T13:21:07.896Z,7.20
2022-12-07T13:23:39.753Z,7.10
2022-12-07T13:26:38.061Z,7.10
2022-12-07T13:29:11.057Z,7.10
2022-12-07T13:31:50.282Z,7.10
2022-12-07T13:34:36.494Z,7.20
2022-12-07T13:37:23.388Z,7.10
2022-12-07T13:40:00.151Z,7.20
2022-12-07T13:42:34.304Z,7.10
2022-12-07T13:45:49.079Z,7.20
2022-12-07T13:48:46.696Z,7.10
2022-12-07T13:51:29.496Z,7.00
2022-12-07T13:54:03.069Z,7.00
2022-12-07T13:56:36.399Z,6.90
2022-12-07T13:59:06.743Z,6.80
2022-12-07T14:01:34.099Z,6.90
2022-12-07T14:04:41.109Z,6.90
2022-12-07T14:07:35.170Z,6.80
2022-12-07T14:10:07.093Z,6.80
2022-12-07T14:12:37.597Z,6.80
2022-12-07T14:15:07.043Z,6.70
2022-12-07T14:17:33.979Z,6.70
2022-12-07T14:20:05.356Z,6.70
2022-12-07T14:22:40.098Z,6.70
2022-12-07T14:25:23.702Z,6.60
2022-12-07T14:27:57.895Z,6.70
2022-12-07T14:30:31.771Z,6.70
2022-12-07T14:33:05.306Z,6.70
2022-12-07T14:35:33.039Z,6.60
2022-12-07T14:38:00.096Z,6.60
2022-12-07T14:40:30.801Z,6.60
2022-12-07T14:43:05.845Z,6.60
2022-12-07T14:45:32.749Z,6.50
2022-12-07T14:53:55.240Z,6.50
2022-12-07T14:56:25.515Z,6.50
2022-12-07T14:58:52.723Z,6.50
2022-12-07T15:01:19.693Z,6.50
2022-12-07T15:03:46.735Z,6.50
2022-12-07T15:06:19.535Z,6.50
2022-12-07T15:08:46.710Z,6.60
2022-12-07T15:11:16.312Z,6.60
2022-12-07T15:14:02.173Z,6.60
2022-12-07T15:16:40.622Z,6.50
2022-12-07T15:19:29.330Z,6.40
2022-12-07T15:21:59.146Z,6.40
2022-12-07T15:24:27.296Z,6.40
2022-12-07T15:26:54.452Z,6.40
2022-12-07T15:29:23.607Z,6.40
2022-12-07T15:31:56.561Z,6.30
2022-12-07T15:34:34.736Z,6.30
2022-12-07T15:37:07.300Z,6.20
2022-12-07T15:39:34.502Z,6.20
2022-12-07T15:42:05.955Z,6.20
2022-12-07T15:44:51.370Z,6.20
2022-12-07T15:47:18.216Z,6.10
2022-12-07T15:49:45.084Z,6.20
2022-12-07T15:52:11.937Z,6.20
2022-12-07T15:54:39.064Z,6.10
2022-12-07T15:57:05.954Z,6.10
2022-12-07T15:59:32.747Z,6.20
2022-12-07T16:01:59.890Z,6.10
2022-12-07T16:04:30.358Z,6.20
2022-12-07T16:06:58.237Z,6.10
2022-12-07T16:09:25.142Z,6.20
2022-12-07T16:11:53.071Z,6.10
2022-12-07T16:14:20.207Z,6.10
2022-12-07T16:16:47.494Z,6.00
2022-12-07T16:19:14.949Z,6.10
2022-12-07T16:21:43.138Z,6.10
2022-12-07T16:24:11.068Z,6.00
2022-12-07T16:26:37.944Z,6.00
2022-12-07T16:29:04.794Z,6.00
2022-12-07T16:31:31.750Z,6.00
2022-12-07T16:34:00.262Z,6.00
2022-12-07T16:37:02.160Z,6.00
2022-12-07T16:39:15.529Z,5.90
2022-12-07T16:41:42.596Z,5.90
2022-12-07T16:44:13.341Z,5.90
2022-12-07T16:46:41.776Z,5.90
2022-12-07T16:49:14.198Z,5.90
2022-12-07T16:51:43.571Z,5.90
2022-12-07T16:54:13.296Z,5.80
2022-12-07T16:56:40.648Z,5.80
2022-12-07T16:59:07.481Z,5.80
2022-12-07T17:01:35.356Z,5.90
2022-12-07T17:04:03.416Z,5.90
2022-12-07T17:06:31.742Z,5.90
2022-12-07T17:08:59.451Z,5.90
2022-12-07T17:11:34.271Z,5.90
2022-12-07T17:14:20.142Z,5.90
2022-12-07T17:16:47.741Z,5.80
2022-12-07T17:19:17.396Z,5.80
2022-12-07T17:21:45.598Z,5.80
2022-12-07T17:24:16.006Z,5.70
2022-12-07T17:26:46.011Z,5.70
2022-12-07T17:29:15.563Z,5.70
2022-12-07T17:31:47.725Z,5.70
2022-12-07T17:34:17.838Z,5.80
2022-12-07T17:36:45.887Z,5.80
2022-12-07T17:39:17.922Z,5.80
2022-12-07T17:42:03.777Z,5.80
2022-12-07T17:44:30.842Z,5.90
2022-12-07T17:46:59.024Z,5.90
2022-12-07T17:49:27.739Z,5.80
2022-12-07T17:52:14.043Z,5.80
2022-12-07T17:54:41.216Z,5.70
2022-12-07T17:57:08.363Z,5.70
2022-12-07T17:59:35.227Z,5.60
2022-12-07T18:02:02.240Z,5.50
2022-12-07T18:04:29.068Z,5.60
2022-12-07T18:06:55.929Z,5.60
2022-12-07T18:09:23.567Z,5.50
2022-12-07T18:11:50.674Z,5.50
2022-12-07T18:14:17.986Z,5.50
2022-12-07T18:16:45.603Z,5.50
2022-12-07T18:19:14.692Z,5.50
2022-12-07T18:21:42.010Z,5.40
2022-12-07T18:24:12.136Z,5.40
2022-12-07T18:26:39.488Z,5.30
2022-12-07T18:29:07.864Z,5.40
2022-12-07T18:31:36.378Z,5.40
2022-12-07T18:34:08.576Z,5.40
2022-12-07T18:36:35.693Z,5.40
2022-12-07T18:39:05.825Z,5.40
2022-12-07T18:41:33.056Z,5.50
2022-12-07T18:44:00.370Z,5.50
2022-12-07T18:46:27.264Z,5.50
2022-12-07T18:48:56.940Z,5.50
2022-12-07T18:51:30.376Z,5.50
2022-12-07T18:54:01.003Z,5.50
2022-12-07T18:56:28.776Z,5.50
2022-12-07T18:59:20.662Z,5.50
2022-12-07T19:01:51.799Z,5.50
2022-12-07T19:04:19.191Z,5.60
2022-12-07T19:06:48.609Z,5.60
2022-12-07T19:09:16.603Z,5.60
2022-12-07T19:11:49.686Z,5.60
2022-12-07T19:14:27.878Z,5.60
2022-12-07T19:16:58.504Z,5.60
2022-12-07T19:19:48.888Z,5.60
2022-12-07T19:22:19.586Z,5.60
2022-12-07T19:24:51.227Z,5.60
2022-12-07T19:27:19.644Z,5.60
2022-12-07T19:29:47.766Z,5.60
2022-12-07T19:32:16.030Z,5.60
2022-12-07T19:34:46.028Z,5.60
2022-12-07T19:37:14.489Z,5.60
2022-12-07T19:39:43.553Z,5.60
2022-12-07T19:42:11.403Z,5.60
2022-12-07T19:44:38.405Z,5.70
2022-12-07T19:47:05.916Z,5.70
2022-12-07T19:49:36.048Z,5.60
2022-12-07T19:52:07.545Z,5.60
2022-12-07T19:54:35.824Z,5.60
2022-12-07T19:57:05.427Z,5.60
2022-12-07T19:59:33.182Z,5.60
2022-12-07T20:02:00.243Z,5.60
2022-12-07T20:04:32.406Z,5.60
2022-12-07T20:07:01.252Z,5.60
2022-12-07T20:09:28.375Z,5.60
2022-12-07T20:12:14.188Z,5.60
2022-12-07T20:14:41.062Z,5.50
2022-12-07T20:17:08.504Z,5.60
2022-12-07T20:19:39.195Z,5.60
2022-12-07T20:22:06.608Z,5.60
2022-12-07T20:24:35.952Z,5.60
2022-12-07T20:27:05.089Z,5.50
2022-12-07T20:29:32.729Z,5.60
2022-12-07T20:32:00.097Z,5.50
2022-12-07T20:34:27.042Z,5.50
2022-12-07T20:36:55.431Z,5.50
2022-12-07T20:39:23.595Z,5.50
2022-12-07T20:42:10.165Z,5.50
2022-12-07T20:44:37.289Z,5.50
2022-12-07T20:47:06.499Z,5.50
2022-12-07T20:49:33.658Z,5.40
2022-12-07T20:52:00.616Z,5.50
2022-12-07T20:54:27.445Z,5.40
2022-12-07T20:56:54.250Z,5.50
2022-12-07T20:59:21.385Z,5.50
2022-12-07T21:01:48.539Z,5.40
2022-12-07T21:04:15.585Z,5.40
2022-12-07T21:06:42.582Z,5.50
2022-12-07T21:09:11.233Z,5.50
2022-12-07T21:11:39.254Z,5.50
2022-12-07T21:14:06.862Z,5.40
2022-12-07T21:16:33.759Z,5.50
2022-12-07T21:19:03.387Z,5.40
2022-12-07T21:21:32.264Z,5.40
2022-12-07T21:24:02.410Z,5.40
2022-12-07T21:26:31.087Z,5.50
2022-12-07T21:28:57.979Z,5.40
2022-12-07T21:31:26.240Z,5.40
2022-12-07T21:33:53.569Z,5.50
2022-12-07T21:36:24.859Z,5.40
2022-12-07T21:38:52.496Z,5.40
2022-12-07T21:41:29.590Z,5.40
2022-12-07T21:43:57.630Z,5.30
2022-12-07T21:46:33.351Z,5.30
2022-12-07T21:49:12.427Z,5.30
2022-12-07T21:51:41.629Z,5.30
2022-12-07T21:54:10.587Z,5.30
2022-12-07T21:56:42.904Z,5.40
2022-12-07T21:59:14.706Z,5.40
2022-12-07T22:01:46.915Z,5.40
2022-12-07T22:04:21.021Z,5.30
2022-12-07T22:06:49.490Z,5.30
2022-12-07T22:09:18.712Z,5.40
2022-12-07T22:11:46.608Z,5.30
2022-12-07T22:14:31.825Z,5.30
2022-12-07T22:16:58.750Z,5.30
2022-12-07T22:19:26.941Z,5.30
2022-12-07T22:21:53.891Z,5.30
2022-12-07T22:24:20.663Z,5.30
2022-12-07T22:26:47.467Z,5.30
2022-12-07T22:29:14.288Z,5.30
2022-12-07T22:31:41.244Z,5.30
2022-12-07T22:34:15.114Z,5.30
2022-12-07T22:36:41.996Z,5.30
2022-12-07T22:39:09.953Z,5.40
2022-12-07T22:41:36.862Z,5.40
2022-12-07T22:44:07.552Z,5.40
2022-12-07T22:46:35.617Z,5.30
2022-12-07T22:49:03.134Z,5.40
2022-12-07T22:51:34.109Z,5.40
2022-12-07T22:54:04.964Z,5.50
2022-12-07T22:56:35.839Z,5.40
2022-12-07T22:59:05.088Z,5.40
2022-12-07T23:01:31.870Z,5.30
2022-12-07T23:03:58.830Z,5.30
2022-12-07T23:06:32.277Z,5.30
2022-12-07T23:09:02.775Z,5.30
2022-12-07T23:11:52.176Z,5.30
2022-12-07T23:14:24.722Z,5.30
2022-12-07T23:16:51.583Z,5.30
2022-12-07T23:19:18.590Z,5.30
2022-12-07T23:21:45.694Z,5.30
2022-12-07T23:24:15.109Z,5.30
2022-12-07T23:26:43.434Z,5.40
2022-12-07T23:29:17.033Z,5.40
2022-12-07T23:31:45.075Z,5.30
2022-12-07T23:34:11.927Z,5.30
2022-12-07T23:36:39.203Z,5.30
2022-12-07T23:39:06.096Z,5.30
2022-12-07T23:41:32.983Z,5.30
2022-12-07T23:44:01.656Z,5.40
2022-12-07T23:46:31.899Z,5.40
2022-12-07T23:49:02.647Z,5.30
2022-12-07T23:51:30.417Z,5.30
2022-12-07T23:53:59.480Z,5.40
2022-12-07T23:56:29.583Z,5.40
2022-12-07T23:58:58.086Z,5.30
